sensor_id;sensor_type;location;lat;lon;timestamp;noise_LAeq;noise_LA_min;noise_LA_max;noise_LA01;noise_LA95
50333;Laerm;36239;48.132;-1.210;2023-01-28T00:01:51;39.83;33.90;53.54;;
50333;Laerm;36239;48.132;-1.210;2023-01-28T00:04:17;40.31;33.44;57.42;;
50333;Laerm;36239;48.132;-1.210;2023-01-28T00:06:43;39.33;34.31;55.70;;
50333;Laerm;36239;48.132;-1.210;2023-01-28T00:09:09;38.51;33.90;51.30;;
50333;Laerm;36239;48.132;-1.210;2023-01-28T00:11:35;40.55;33.90;65.48;;
50333;Laerm;36239;48.132;-1.210;2023-01-28T00:14:01;38.36;33.90;45.54;;
50333;Laerm;36239;48.132;-1.210;2023-01-28T00:16:29;38.63;34.31;48.55;;
50333;Laerm;36239;48.132;-1.210;2023-01-28T00:18:55;38.76;33.90;47.77;;
50333;Laerm;36239;48.132;-1.210;2023-01-28T00:21:21;38.98;34.69;53.57;;
50333;Laerm;36239;48.132;-1.210;2023-01-28T00:23:49;39.36;32.93;59.29;;
50333;Laerm;36239;48.132;-1.210;2023-01-28T00:26:16;39.20;33.90;52.56;;
50333;Laerm;36239;48.132;-1.210;2023-01-28T00:28:43;40.65;33.90;57.83;;
50333;Laerm;36239;48.132;-1.210;2023-01-28T00:31:11;41.53;34.31;61.04;;
50333;Laerm;36239;48.132;-1.210;2023-01-28T00:33:37;41.03;34.69;69.23;;
50333;Laerm;36239;48.132;-1.210;2023-01-28T00:36:04;49.24;32.93;76.89;;
50333;Laerm;36239;48.132;-1.210;2023-01-28T00:38:31;40.02;32.93;57.12;;
50333;Laerm;36239;48.132;-1.210;2023-01-28T00:41:10;49.70;33.90;74.87;;
50333;Laerm;36239;48.132;-1.210;2023-01-28T00:43:37;46.91;33.90;75.35;;
50333;Laerm;36239;48.132;-1.210;2023-01-28T00:46:03;39.08;34.31;53.37;;
50333;Laerm;36239;48.132;-1.210;2023-01-28T00:48:29;43.84;33.90;65.88;;
50333;Laerm;36239;48.132;-1.210;2023-01-28T00:50:55;45.30;33.44;74.26;;
50333;Laerm;36239;48.132;-1.210;2023-01-28T00:53:22;48.42;33.90;71.47;;
50333;Laerm;36239;48.132;-1.210;2023-01-28T00:55:48;38.42;33.44;49.98;;
50333;Laerm;36239;48.132;-1.210;2023-01-28T00:58:14;41.42;33.44;58.82;;
50333;Laerm;36239;48.132;-1.210;2023-01-28T01:00:40;43.96;33.90;65.41;;
50333;Laerm;36239;48.132;-1.210;2023-01-28T01:03:06;51.22;34.31;76.96;;
50333;Laerm;36239;48.132;-1.210;2023-01-28T01:05:32;40.42;33.90;60.37;;
50333;Laerm;36239;48.132;-1.210;2023-01-28T01:07:58;38.97;33.44;50.75;;
50333;Laerm;36239;48.132;-1.210;2023-01-28T01:10:24;38.59;33.44;51.53;;
50333;Laerm;36239;48.132;-1.210;2023-01-28T01:12:51;38.56;32.93;54.66;;
50333;Laerm;36239;48.132;-1.210;2023-01-28T01:15:17;42.54;32.93;65.74;;
50333;Laerm;36239;48.132;-1.210;2023-01-28T01:17:45;44.52;33.44;69.07;;
50333;Laerm;36239;48.132;-1.210;2023-01-28T01:20:29;43.98;32.93;65.29;;
50333;Laerm;36239;48.132;-1.210;2023-01-28T01:22:58;44.50;32.35;66.66;;
50333;Laerm;36239;48.132;-1.210;2023-01-28T01:25:24;43.90;32.93;62.25;;
50333;Laerm;36239;48.132;-1.210;2023-01-28T01:27:50;42.10;32.93;65.83;;
50333;Laerm;36239;48.132;-1.210;2023-01-28T01:30:16;38.51;33.44;57.98;;
50333;Laerm;36239;48.132;-1.210;2023-01-28T01:32:42;37.82;33.44;51.16;;
50333;Laerm;36239;48.132;-1.210;2023-01-28T01:35:08;37.80;32.93;45.99;;
50333;Laerm;36239;48.132;-1.210;2023-01-28T01:37:35;37.48;32.35;47.88;;
50333;Laerm;36239;48.132;-1.210;2023-01-28T01:40:01;38.33;33.44;42.22;;
50333;Laerm;36239;48.132;-1.210;2023-01-28T01:42:29;38.55;33.90;57.04;;
50333;Laerm;36239;48.132;-1.210;2023-01-28T01:45:05;37.80;33.44;49.43;;
50333;Laerm;36239;48.132;-1.210;2023-01-28T01:47:38;37.60;33.44;48.64;;
50333;Laerm;36239;48.132;-1.210;2023-01-28T01:50:09;41.82;32.35;65.63;;
50333;Laerm;36239;48.132;-1.210;2023-01-28T01:52:37;40.55;33.44;63.65;;
50333;Laerm;36239;48.132;-1.210;2023-01-28T01:55:06;38.82;34.69;49.81;;
50333;Laerm;36239;48.132;-1.210;2023-01-28T01:57:34;37.55;32.93;40.98;;
50333;Laerm;36239;48.132;-1.210;2023-01-28T02:00:01;37.71;32.93;49.33;;
50333;Laerm;36239;48.132;-1.210;2023-01-28T02:02:35;37.79;32.35;48.90;;
50333;Laerm;36239;48.132;-1.210;2023-01-28T02:05:03;37.58;32.93;42.85;;
50333;Laerm;36239;48.132;-1.210;2023-01-28T02:07:29;38.79;33.44;53.91;;
50333;Laerm;36239;48.132;-1.210;2023-01-28T02:09:55;40.12;33.44;63.18;;
50333;Laerm;36239;48.132;-1.210;2023-01-28T02:12:22;37.59;33.44;41.75;;
50333;Laerm;36239;48.132;-1.210;2023-01-28T02:14:53;37.89;32.93;47.12;;
50333;Laerm;36239;48.132;-1.210;2023-01-28T02:17:21;38.30;33.44;43.39;;
50333;Laerm;36239;48.132;-1.210;2023-01-28T02:19:51;38.13;33.90;49.56;;
50333;Laerm;36239;48.132;-1.210;2023-01-28T02:30:24;37.93;33.44;49.65;;
50333;Laerm;36239;48.132;-1.210;2023-01-28T02:32:55;37.32;32.93;40.89;;
50333;Laerm;36239;48.132;-1.210;2023-01-28T02:35:36;38.27;33.44;67.21;;
50333;Laerm;36239;48.132;-1.210;2023-01-28T02:40:37;37.94;33.90;43.14;;
50333;Laerm;36239;48.132;-1.210;2023-01-28T02:43:36;37.63;32.93;42.76;;
50333;Laerm;36239;48.132;-1.210;2023-01-28T02:46:36;37.86;32.93;44.69;;
50333;Laerm;36239;48.132;-1.210;2023-01-28T02:49:15;37.91;32.93;45.69;;
50333;Laerm;36239;48.132;-1.210;2023-01-28T02:51:49;38.04;33.90;42.22;;
50333;Laerm;36239;48.132;-1.210;2023-01-28T02:54:25;44.06;33.44;79.28;;
50333;Laerm;36239;48.132;-1.210;2023-01-28T02:56:55;37.42;32.35;42.82;;
50333;Laerm;36239;48.132;-1.210;2023-01-28T02:59:27;37.80;32.93;41.61;;
50333;Laerm;36239;48.132;-1.210;2023-01-28T03:02:41;38.06;33.44;41.82;;
50333;Laerm;36239;48.132;-1.210;2023-01-28T03:04:57;38.34;33.90;43.24;;
50333;Laerm;36239;48.132;-1.210;2023-01-28T03:07:26;37.94;32.93;46.91;;
50333;Laerm;36239;48.132;-1.210;2023-01-28T03:09:52;37.60;32.35;41.75;;
50333;Laerm;36239;48.132;-1.210;2023-01-28T03:12:24;38.20;33.44;54.12;;
50333;Laerm;36239;48.132;-1.210;2023-01-28T03:18:00;38.98;32.93;51.62;;
50333;Laerm;36239;48.132;-1.210;2023-01-28T03:23:44;40.28;33.44;63.63;;
50333;Laerm;36239;48.132;-1.210;2023-01-28T03:26:31;41.25;34.69;65.84;;
50333;Laerm;36239;48.132;-1.210;2023-01-28T03:29:19;40.31;35.36;59.14;;
50333;Laerm;36239;48.132;-1.210;2023-01-28T03:32:05;39.65;33.90;57.35;;
50333;Laerm;36239;48.132;-1.210;2023-01-28T03:34:50;41.73;34.69;63.01;;
50333;Laerm;36239;48.132;-1.210;2023-01-28T03:37:36;41.94;33.90;67.63;;
50333;Laerm;36239;48.132;-1.210;2023-01-28T03:40:03;43.18;34.69;67.78;;
50333;Laerm;36239;48.132;-1.210;2023-01-28T03:42:30;39.58;33.44;53.54;;
50333;Laerm;36239;48.132;-1.210;2023-01-28T03:44:57;40.81;33.44;63.89;;
50333;Laerm;36239;48.132;-1.210;2023-01-28T03:47:25;43.38;35.04;68.91;;
50333;Laerm;36239;48.132;-1.210;2023-01-28T03:49:52;40.82;33.44;65.57;;
50333;Laerm;36239;48.132;-1.210;2023-01-28T03:52:23;49.56;33.44;75.07;;
50333;Laerm;36239;48.132;-1.210;2023-01-28T03:54:49;39.82;33.44;59.16;;
50333;Laerm;36239;48.132;-1.210;2023-01-28T03:57:21;48.34;33.44;71.81;;
50333;Laerm;36239;48.132;-1.210;2023-01-28T03:59:48;41.13;32.93;64.26;;
50333;Laerm;36239;48.132;-1.210;2023-01-28T04:02:15;38.45;32.35;59.24;;
50333;Laerm;36239;48.132;-1.210;2023-01-28T04:04:41;40.35;33.90;61.12;;
50333;Laerm;36239;48.132;-1.210;2023-01-28T04:07:08;39.29;32.93;54.66;;
50333;Laerm;36239;48.132;-1.210;2023-01-28T04:09:35;39.29;34.69;47.14;;
50333;Laerm;36239;48.132;-1.210;2023-01-28T04:12:01;39.42;35.04;45.20;;
50333;Laerm;36239;48.132;-1.210;2023-01-28T04:14:27;39.50;35.04;44.65;;
50333;Laerm;36239;48.132;-1.210;2023-01-28T04:16:53;42.68;35.36;67.11;;
50333;Laerm;36239;48.132;-1.210;2023-01-28T04:19:20;45.14;34.31;66.24;;
50333;Laerm;36239;48.132;-1.210;2023-01-28T04:21:46;38.87;33.44;56.45;;
50333;Laerm;36239;48.132;-1.210;2023-01-28T04:24:14;42.03;35.04;66.22;;
50333;Laerm;36239;48.132;-1.210;2023-01-28T04:26:40;43.52;34.69;66.63;;
50333;Laerm;36239;48.132;-1.210;2023-01-28T04:29:06;52.78;34.31;69.49;;
50333;Laerm;36239;48.132;-1.210;2023-01-28T04:31:32;46.43;34.69;74.94;;
50333;Laerm;36239;48.132;-1.210;2023-01-28T04:33:58;42.17;33.90;63.66;;
50333;Laerm;36239;48.132;-1.210;2023-01-28T04:36:25;55.73;34.31;86.07;;
50333;Laerm;36239;48.132;-1.210;2023-01-28T04:38:51;43.46;34.69;66.07;;
50333;Laerm;36239;48.132;-1.210;2023-01-28T04:41:17;47.50;34.31;68.98;;
50333;Laerm;36239;48.132;-1.210;2023-01-28T04:43:43;42.83;34.31;65.37;;
50333;Laerm;36239;48.132;-1.210;2023-01-28T04:46:09;41.52;34.31;59.44;;
50333;Laerm;36239;48.132;-1.210;2023-01-28T04:48:35;38.96;34.31;46.95;;
50333;Laerm;36239;48.132;-1.210;2023-01-28T04:51:02;46.66;33.44;67.99;;
50333;Laerm;36239;48.132;-1.210;2023-01-28T04:53:28;42.15;33.90;63.19;;
50333;Laerm;36239;48.132;-1.210;2023-01-28T04:55:55;39.98;32.93;61.24;;
50333;Laerm;36239;48.132;-1.210;2023-01-28T04:58:21;42.63;34.31;62.96;;
50333;Laerm;36239;48.132;-1.210;2023-01-28T05:00:52;39.07;33.44;63.71;;
50333;Laerm;36239;48.132;-1.210;2023-01-28T05:03:18;38.32;33.44;45.63;;
50333;Laerm;36239;48.132;-1.210;2023-01-28T05:05:44;38.68;34.31;54.09;;
50333;Laerm;36239;48.132;-1.210;2023-01-28T05:08:10;39.44;33.90;62.15;;
50333;Laerm;36239;48.132;-1.210;2023-01-28T05:10:36;39.93;34.31;61.16;;
50333;Laerm;36239;48.132;-1.210;2023-01-28T05:13:02;42.65;32.93;61.59;;
50333;Laerm;36239;48.132;-1.210;2023-01-28T05:15:29;39.01;32.35;58.30;;
50333;Laerm;36239;48.132;-1.210;2023-01-28T05:17:54;40.66;33.90;64.84;;
50333;Laerm;36239;48.132;-1.210;2023-01-28T05:20:21;39.25;32.93;63.04;;
50333;Laerm;36239;48.132;-1.210;2023-01-28T05:22:47;38.37;33.44;45.45;;
50333;Laerm;36239;48.132;-1.210;2023-01-28T05:25:13;52.01;34.31;76.85;;
50333;Laerm;36239;48.132;-1.210;2023-01-28T05:27:40;39.46;33.90;56.59;;
50333;Laerm;36239;48.132;-1.210;2023-01-28T05:30:06;46.87;33.90;69.70;;
50333;Laerm;36239;48.132;-1.210;2023-01-28T05:32:32;45.65;35.36;72.22;;
50333;Laerm;36239;48.132;-1.210;2023-01-28T05:34:58;56.26;34.31;79.57;;
50333;Laerm;36239;48.132;-1.210;2023-01-28T05:37:24;46.95;34.69;71.28;;
50333;Laerm;36239;48.132;-1.210;2023-01-28T05:39:50;46.98;33.90;71.30;;
50333;Laerm;36239;48.132;-1.210;2023-01-28T05:42:16;54.46;32.35;79.20;;
50333;Laerm;36239;48.132;-1.210;2023-01-28T05:44:45;49.00;33.90;69.64;;
50333;Laerm;36239;48.132;-1.210;2023-01-28T05:47:11;57.99;33.90;81.95;;
50333;Laerm;36239;48.132;-1.210;2023-01-28T05:49:37;43.24;34.31;67.39;;
50333;Laerm;36239;48.132;-1.210;2023-01-28T05:52:03;42.36;34.69;65.77;;
50333;Laerm;36239;48.132;-1.210;2023-01-28T05:54:29;49.30;33.44;74.00;;
50333;Laerm;36239;48.132;-1.210;2023-01-28T05:56:55;49.34;33.44;78.19;;
50333;Laerm;36239;48.132;-1.210;2023-01-28T05:59:21;57.83;31.68;81.84;;
50333;Laerm;36239;48.132;-1.210;2023-01-28T06:01:47;55.00;33.44;82.09;;
50333;Laerm;36239;48.132;-1.210;2023-01-28T06:04:13;45.59;33.55;73.27;;
50333;Laerm;36239;48.132;-1.210;2023-01-28T06:06:39;39.96;33.44;63.26;;
50333;Laerm;36239;48.132;-1.210;2023-01-28T06:09:05;38.56;34.31;43.09;;
50333;Laerm;36239;48.132;-1.210;2023-01-28T06:11:31;55.95;34.31;81.84;;
50333;Laerm;36239;48.132;-1.210;2023-01-28T06:13:57;50.11;34.31;75.69;;
50333;Laerm;36239;48.132;-1.210;2023-01-28T06:16:23;39.85;35.94;50.49;;
50333;Laerm;36239;48.132;-1.210;2023-01-28T06:18:49;41.33;35.36;62.96;;
50333;Laerm;36239;48.132;-1.210;2023-01-28T06:21:15;41.07;35.66;59.32;;
50333;Laerm;36239;48.132;-1.210;2023-01-28T06:23:41;41.31;34.31;67.11;;
50333;Laerm;36239;48.132;-1.210;2023-01-28T06:26:07;43.89;35.36;68.75;;
50333;Laerm;36239;48.132;-1.210;2023-01-28T06:28:33;45.55;35.36;73.65;;
50333;Laerm;36239;48.132;-1.210;2023-01-28T06:30:59;43.83;36.45;67.42;;
50333;Laerm;36239;48.132;-1.210;2023-01-28T06:33:25;51.25;36.45;79.81;;
50333;Laerm;36239;48.132;-1.210;2023-01-28T06:35:51;41.59;34.69;58.51;;
50333;Laerm;36239;48.132;-1.210;2023-01-28T06:38:17;43.68;35.36;64.53;;
50333;Laerm;36239;48.132;-1.210;2023-01-28T06:40:43;44.14;33.90;66.52;;
50333;Laerm;36239;48.132;-1.210;2023-01-28T06:43:09;46.65;35.36;73.65;;
50333;Laerm;36239;48.132;-1.210;2023-01-28T06:45:35;42.77;37.88;58.28;;
50333;Laerm;36239;48.132;-1.210;2023-01-28T06:48:01;45.96;35.94;67.24;;
50333;Laerm;36239;48.132;-1.210;2023-01-28T06:50:27;43.88;35.36;69.42;;
50333;Laerm;36239;48.132;-1.210;2023-01-28T06:52:53;39.90;35.66;48.20;;
50333;Laerm;36239;48.132;-1.210;2023-01-28T06:55:19;44.07;36.20;63.54;;
50333;Laerm;36239;48.132;-1.210;2023-01-28T06:57:45;41.81;36.20;58.70;;
50333;Laerm;36239;48.132;-1.210;2023-01-28T07:00:11;40.45;34.69;59.22;;
50333;Laerm;36239;48.132;-1.210;2023-01-28T07:02:40;40.72;35.94;64.83;;
50333;Laerm;36239;48.132;-1.210;2023-01-28T07:05:06;41.86;36.91;65.72;;
50333;Laerm;36239;48.132;-1.210;2023-01-28T07:07:32;43.22;37.52;65.61;;
50333;Laerm;36239;48.132;-1.210;2023-01-28T07:09:58;42.01;36.45;64.87;;
50333;Laerm;36239;48.132;-1.210;2023-01-28T07:12:24;46.37;37.52;73.75;;
50333;Laerm;36239;48.132;-1.210;2023-01-28T07:14:50;40.98;37.70;52.60;;
50333;Laerm;36239;48.132;-1.210;2023-01-28T07:17:16;41.22;36.91;51.48;;
50333;Laerm;36239;48.132;-1.210;2023-01-28T07:19:42;45.46;39.46;66.58;;
50333;Laerm;36239;48.132;-1.210;2023-01-28T07:22:08;45.09;42.76;57.37;;
50333;Laerm;36239;48.132;-1.210;2023-01-28T07:24:34;42.51;37.70;54.94;;
50333;Laerm;36239;48.132;-1.210;2023-01-28T07:27:00;41.29;37.88;53.16;;
50333;Laerm;36239;48.132;-1.210;2023-01-28T07:29:26;41.91;37.32;62.17;;
50333;Laerm;36239;48.132;-1.210;2023-01-28T07:31:52;47.12;38.32;67.55;;
50333;Laerm;36239;48.132;-1.210;2023-01-28T07:34:18;43.44;37.88;59.12;;
50333;Laerm;36239;48.132;-1.210;2023-01-28T07:36:44;43.79;38.81;64.10;;
50333;Laerm;36239;48.132;-1.210;2023-01-28T07:39:10;49.23;38.81;73.15;;
50333;Laerm;36239;48.132;-1.210;2023-01-28T07:41:36;43.77;39.21;68.22;;
50333;Laerm;36239;48.132;-1.210;2023-01-28T07:44:02;43.35;37.12;63.44;;
50333;Laerm;36239;48.132;-1.210;2023-01-28T07:46:28;44.08;40.13;57.16;;
50333;Laerm;36239;48.132;-1.210;2023-01-28T07:48:54;44.99;39.58;58.02;;
50333;Laerm;36239;48.132;-1.210;2023-01-28T07:51:20;43.70;38.67;64.46;;
50333;Laerm;36239;48.132;-1.210;2023-01-28T07:53:46;53.72;38.52;71.30;;
50333;Laerm;36239;48.132;-1.210;2023-01-28T07:56:12;47.77;40.13;65.35;;
50333;Laerm;36239;48.132;-1.210;2023-01-28T07:58:38;46.84;38.37;66.00;;
50333;Laerm;36239;48.132;-1.210;2023-01-28T08:01:04;45.97;38.52;69.39;;
50333;Laerm;36239;48.132;-1.210;2023-01-28T08:03:30;44.88;39.46;70.06;;
50333;Laerm;36239;48.132;-1.210;2023-01-28T08:05:57;42.94;38.81;61.86;;
50333;Laerm;36239;48.132;-1.210;2023-01-28T08:08:24;44.77;38.95;65.02;;
50333;Laerm;36239;48.132;-1.210;2023-01-28T08:10:52;43.07;39.08;56.82;;
50333;Laerm;36239;48.132;-1.210;2023-01-28T08:13:18;42.44;38.52;57.74;;
50333;Laerm;36239;48.132;-1.210;2023-01-28T08:15:45;42.77;38.81;59.18;;
50333;Laerm;36239;48.132;-1.210;2023-01-28T08:18:12;43.34;39.08;56.23;;
50333;Laerm;36239;48.132;-1.210;2023-01-28T08:20:38;42.45;38.52;55.67;;
50333;Laerm;36239;48.132;-1.210;2023-01-28T08:23:10;45.24;39.08;57.73;;
50333;Laerm;36239;48.132;-1.210;2023-01-28T08:25:36;44.10;39.46;62.49;;
50333;Laerm;36239;48.132;-1.210;2023-01-28T08:28:02;42.80;38.81;56.78;;
50333;Laerm;36239;48.132;-1.210;2023-01-28T08:30:29;42.35;39.08;47.95;;
50333;Laerm;36239;48.132;-1.210;2023-01-28T08:32:56;42.81;37.70;61.91;;
50333;Laerm;36239;48.132;-1.210;2023-01-28T08:35:23;45.27;39.70;67.91;;
50333;Laerm;36239;48.132;-1.210;2023-01-28T08:37:49;42.97;39.21;58.28;;
50333;Laerm;36239;48.132;-1.210;2023-01-28T08:40:15;42.41;39.08;49.07;;
50333;Laerm;36239;48.132;-1.210;2023-01-28T08:42:47;43.78;39.21;58.94;;
50333;Laerm;36239;48.132;-1.210;2023-01-28T08:45:14;59.43;41.22;74.08;;
50333;Laerm;36239;48.132;-1.210;2023-01-28T08:47:49;45.93;39.21;66.65;;
50333;Laerm;36239;48.132;-1.210;2023-01-28T08:50:16;45.44;39.08;65.36;;
50333;Laerm;36239;48.132;-1.210;2023-01-28T08:52:43;49.78;40.03;65.53;;
50333;Laerm;36239;48.132;-1.210;2023-01-28T08:55:10;43.70;38.81;65.04;;
50333;Laerm;36239;48.132;-1.210;2023-01-28T08:57:36;41.35;38.05;54.60;;
50333;Laerm;36239;48.132;-1.210;2023-01-28T09:00:03;41.80;39.21;48.05;;
50333;Laerm;36239;48.132;-1.210;2023-01-28T09:02:29;41.80;38.21;59.84;;
50333;Laerm;36239;48.132;-1.210;2023-01-28T09:04:55;42.73;37.32;55.63;;
50333;Laerm;36239;48.132;-1.210;2023-01-28T09:07:21;40.87;37.88;56.46;;
50333;Laerm;36239;48.132;-1.210;2023-01-28T09:09:50;41.04;37.70;52.21;;
50333;Laerm;36239;48.132;-1.210;2023-01-28T09:12:16;41.64;37.70;56.28;;
50333;Laerm;36239;48.132;-1.210;2023-01-28T09:14:42;41.50;37.88;50.52;;
50333;Laerm;36239;48.132;-1.210;2023-01-28T09:17:08;41.68;38.21;53.88;;
50333;Laerm;36239;48.132;-1.210;2023-01-28T09:19:34;41.79;37.32;55.06;;
50333;Laerm;36239;48.132;-1.210;2023-01-28T09:22:02;41.81;37.32;58.54;;
50333;Laerm;36239;48.132;-1.210;2023-01-28T09:24:28;41.58;38.21;51.96;;
50333;Laerm;36239;48.132;-1.210;2023-01-28T09:26:54;42.64;37.52;61.88;;
50333;Laerm;36239;48.132;-1.210;2023-01-28T09:29:20;41.60;37.52;50.54;;
50333;Laerm;36239;48.132;-1.210;2023-01-28T09:31:46;42.49;36.69;58.28;;
50333;Laerm;36239;48.132;-1.210;2023-01-28T09:34:12;43.72;37.52;69.01;;
50333;Laerm;36239;48.132;-1.210;2023-01-28T09:36:39;49.85;38.21;70.41;;
50333;Laerm;36239;48.132;-1.210;2023-01-28T09:39:05;47.83;38.67;70.44;;
50333;Laerm;36239;48.132;-1.210;2023-01-28T09:41:39;59.54;38.52;82.72;;
50333;Laerm;36239;48.132;-1.210;2023-01-28T09:46:41;46.68;38.21;72.07;;
50333;Laerm;36239;48.132;-1.210;2023-01-28T09:49:32;47.52;37.88;70.77;;
50333;Laerm;36239;48.132;-1.210;2023-01-28T09:51:59;47.00;37.88;67.88;;
50333;Laerm;36239;48.132;-1.210;2023-01-28T09:56:52;55.94;38.52;78.71;;
50333;Laerm;36239;48.132;-1.210;2023-01-28T09:59:21;57.24;38.52;85.90;;
50333;Laerm;36239;48.132;-1.210;2023-01-28T10:04:19;51.18;37.52;78.03;;
50333;Laerm;36239;48.132;-1.210;2023-01-28T10:09:47;61.31;37.87;89.59;;
50333;Laerm;36239;48.132;-1.210;2023-01-28T10:12:33;61.77;37.53;85.35;;
50333;Laerm;36239;48.132;-1.210;2023-01-28T10:15:46;54.94;38.52;87.81;;
50333;Laerm;36239;48.132;-1.210;2023-01-28T10:17:53;64.11;38.37;92.45;;
50333;Laerm;36239;48.132;-1.210;2023-01-28T10:20:26;63.32;39.70;84.46;;
50333;Laerm;36239;48.132;-1.210;2023-01-28T10:23:04;47.19;37.88;69.87;;
50333;Laerm;36239;48.132;-1.210;2023-01-28T10:25:31;59.67;37.32;90.25;;
50333;Laerm;36239;48.132;-1.210;2023-01-28T10:27:58;53.11;38.05;79.68;;
50333;Laerm;36239;48.132;-1.210;2023-01-28T10:30:27;61.12;38.05;89.55;;
50333;Laerm;36239;48.132;-1.210;2023-01-28T10:33:04;57.25;38.18;86.40;;
50333;Laerm;36239;48.132;-1.210;2023-01-28T10:35:31;64.34;37.70;86.55;;
50333;Laerm;36239;48.132;-1.210;2023-01-28T10:38:01;61.72;38.21;87.56;;
50333;Laerm;36239;48.132;-1.210;2023-01-28T10:40:31;57.63;38.95;84.45;;
50333;Laerm;36239;48.132;-1.210;2023-01-28T10:42:57;52.41;38.21;76.67;;
50333;Laerm;36239;48.132;-1.210;2023-01-28T10:45:27;55.34;37.53;85.33;;
50333;Laerm;36239;48.132;-1.210;2023-01-28T10:50:23;53.45;36.91;82.08;;
50333;Laerm;36239;48.132;-1.210;2023-01-28T10:53:07;55.67;36.91;85.34;;
50333;Laerm;36239;48.132;-1.210;2023-01-28T10:57:59;61.58;37.52;88.48;;
50333;Laerm;36239;48.132;-1.210;2023-01-28T11:00:28;60.55;38.05;87.47;;
50333;Laerm;36239;48.132;-1.210;2023-01-28T11:02:56;42.04;38.37;58.18;;
50333;Laerm;36239;48.132;-1.210;2023-01-28T11:05:23;51.46;36.91;81.28;;
50333;Laerm;36239;48.132;-1.210;2023-01-28T11:10:48;49.19;37.70;70.82;;
50333;Laerm;36239;48.132;-1.210;2023-01-28T11:15:47;62.55;38.21;88.50;;
50333;Laerm;36239;48.132;-1.210;2023-01-28T11:18:20;48.58;36.91;77.72;;
50333;Laerm;36239;48.132;-1.210;2023-01-28T11:20:54;45.58;37.32;69.26;;
50333;Laerm;36239;48.132;-1.210;2023-01-28T11:23:26;48.43;37.70;74.34;;
50333;Laerm;36239;48.132;-1.210;2023-01-28T11:26:12;44.60;36.69;61.84;;
50333;Laerm;36239;48.132;-1.210;2023-01-28T11:28:40;43.86;37.70;61.35;;
50333;Laerm;36239;48.132;-1.210;2023-01-28T11:31:06;43.95;37.70;65.21;;
50333;Laerm;36239;48.132;-1.210;2023-01-28T11:33:36;57.27;37.52;86.70;;
50333;Laerm;36239;48.132;-1.210;2023-01-28T11:38:29;54.25;36.69;77.08;;
50333;Laerm;36239;48.132;-1.210;2023-01-28T11:40:56;45.44;36.69;69.48;;
50333;Laerm;36239;48.132;-1.210;2023-01-28T11:43:23;43.36;38.21;67.47;;
50333;Laerm;36239;48.132;-1.210;2023-01-28T11:45:56;57.35;38.52;84.30;;
50333;Laerm;36239;48.132;-1.210;2023-01-28T11:50:55;45.70;38.21;73.18;;
50333;Laerm;36239;48.132;-1.210;2023-01-28T11:53:30;52.57;39.08;76.05;;
50333;Laerm;36239;48.132;-1.210;2023-01-28T11:56:08;62.01;37.70;86.99;;
50333;Laerm;36239;48.132;-1.210;2023-01-28T12:01:22;53.84;37.32;81.16;;
50333;Laerm;36239;48.132;-1.210;2023-01-28T12:04:37;57.19;37.52;81.72;;
50333;Laerm;36239;48.132;-1.210;2023-01-28T12:25:53;64.95;36.69;90.53;;
50333;Laerm;36239;48.132;-1.210;2023-01-28T12:28:02;61.34;36.45;88.72;;
50333;Laerm;36239;48.132;-1.210;2023-01-28T12:33:13;59.02;37.12;86.03;;
50333;Laerm;36239;48.132;-1.210;2023-01-28T12:35:48;53.41;36.91;78.69;;
50333;Laerm;36239;48.132;-1.210;2023-01-28T12:38:30;57.89;37.52;82.71;;
50333;Laerm;36239;48.132;-1.210;2023-01-28T12:40:58;52.59;37.12;77.40;;
50333;Laerm;36239;48.132;-1.210;2023-01-28T12:53:32;57.50;38.67;85.14;;
50333;Laerm;36239;48.132;-1.210;2023-01-28T12:59:06;48.33;38.05;71.36;;
50333;Laerm;36239;48.132;-1.210;2023-01-28T13:01:39;61.56;38.52;87.66;;
50333;Laerm;36239;48.132;-1.210;2023-01-28T13:04:38;59.64;36.91;81.72;;
50333;Laerm;36239;48.132;-1.210;2023-01-28T13:07:14;68.58;38.21;92.46;;
50333;Laerm;36239;48.132;-1.210;2023-01-28T13:09:50;62.69;39.21;88.28;;
50333;Laerm;36239;48.132;-1.210;2023-01-28T13:12:18;51.65;38.37;76.18;;
50333;Laerm;36239;48.132;-1.210;2023-01-28T13:14:45;59.46;37.70;85.09;;
50333;Laerm;36239;48.132;-1.210;2023-01-28T13:17:23;57.34;37.70;84.47;;
50333;Laerm;36239;48.132;-1.210;2023-01-28T13:19:49;64.39;38.67;88.95;;
50333;Laerm;36239;48.132;-1.210;2023-01-28T13:22:30;54.33;39.08;78.76;;
50333;Laerm;36239;48.132;-1.210;2023-01-28T13:24:56;62.04;39.08;90.67;;
50333;Laerm;36239;48.132;-1.210;2023-01-28T13:27:25;55.66;38.52;83.50;;
50333;Laerm;36239;48.132;-1.210;2023-01-28T13:32:53;61.14;38.21;86.38;;
50333;Laerm;36239;48.132;-1.210;2023-01-28T13:35:29;50.85;36.91;77.12;;
50333;Laerm;36239;48.132;-1.210;2023-01-28T13:37:56;68.70;38.21;92.61;;
50333;Laerm;36239;48.132;-1.210;2023-01-28T13:40:24;51.77;37.88;75.12;;
50333;Laerm;36239;48.132;-1.210;2023-01-28T13:45:23;58.68;37.70;84.04;;
50333;Laerm;36239;48.132;-1.210;2023-01-28T13:47:54;53.37;37.52;77.96;;
50333;Laerm;36239;48.132;-1.210;2023-01-28T13:50:23;49.37;38.37;74.96;;
50333;Laerm;36239;48.132;-1.210;2023-01-28T13:55:20;45.39;38.05;64.87;;
50333;Laerm;36239;48.132;-1.210;2023-01-28T14:16:44;60.59;37.32;87.17;;
50333;Laerm;36239;48.132;-1.210;2023-01-28T14:19:18;60.67;36.45;83.93;;
50333;Laerm;36239;48.132;-1.210;2023-01-28T14:21:46;46.74;36.45;75.23;;
50333;Laerm;36239;48.132;-1.210;2023-01-28T14:24:16;51.86;37.88;76.60;;
50333;Laerm;36239;48.132;-1.210;2023-01-28T14:31:53;58.03;37.52;78.19;;
50333;Laerm;36239;48.132;-1.210;2023-01-28T14:34:26;56.14;37.70;80.73;;
50333;Laerm;36239;48.132;-1.210;2023-01-28T14:36:53;45.96;39.34;66.40;;
50333;Laerm;36239;48.132;-1.210;2023-01-28T14:39:39;47.73;38.21;74.97;;
50333;Laerm;36239;48.132;-1.210;2023-01-28T14:42:10;63.78;38.67;86.75;;
50333;Laerm;36239;48.132;-1.210;2023-01-28T14:44:38;57.38;38.67;85.26;;
50333;Laerm;36239;48.132;-1.210;2023-01-28T14:57:46;49.84;37.12;71.78;;
50333;Laerm;36239;48.132;-1.210;2023-01-28T15:00:21;50.60;37.70;75.55;;
50333;Laerm;36239;48.132;-1.210;2023-01-28T15:02:48;50.16;36.91;78.46;;
50333;Laerm;36239;48.132;-1.210;2023-01-28T15:05:19;55.24;37.52;81.53;;
50333;Laerm;36239;48.132;-1.210;2023-01-28T15:07:46;45.81;37.52;65.72;;
50333;Laerm;36239;48.132;-1.210;2023-01-28T15:10:20;50.59;36.20;72.38;;
50333;Laerm;36239;48.132;-1.210;2023-01-28T15:12:51;58.48;37.52;86.41;;
50333;Laerm;36239;48.132;-1.210;2023-01-28T15:17:53;42.59;38.52;63.56;;
50333;Laerm;36239;48.132;-1.210;2023-01-28T15:20:23;49.15;37.70;74.10;;
50333;Laerm;36239;48.132;-1.210;2023-01-28T15:22:49;42.17;37.32;59.69;;
50333;Laerm;36239;48.132;-1.210;2023-01-28T15:25:20;43.86;38.02;70.98;;
50333;Laerm;36239;48.132;-1.210;2023-01-28T15:27:46;43.46;37.53;64.96;;
50333;Laerm;36239;48.132;-1.210;2023-01-28T15:30:23;44.05;39.68;66.01;;
50333;Laerm;36239;48.132;-1.210;2023-01-28T15:32:56;41.43;38.21;57.82;;
50333;Laerm;36239;48.132;-1.210;2023-01-28T15:35:23;51.43;38.21;74.39;;
50333;Laerm;36239;48.132;-1.210;2023-01-28T15:37:49;58.60;39.08;86.08;;
50333;Laerm;36239;48.132;-1.210;2023-01-28T15:40:16;56.82;37.52;82.25;;
50333;Laerm;36239;48.132;-1.210;2023-01-28T15:42:44;50.55;37.32;79.29;;
50333;Laerm;36239;48.132;-1.210;2023-01-28T15:45:17;42.51;36.20;63.43;;
50333;Laerm;36239;48.132;-1.210;2023-01-28T15:47:44;61.95;37.32;89.06;;